createdAt,value
2019-06-26T00:38:50.677Z,1016.63
2019-06-26T00:38:51.248Z,1016.58
2019-06-26T00:38:51.849Z,1016.57
2019-06-26T00:38:52.449Z,1016.57
2019-06-26T00:38:53.050Z,1016.56
2019-06-26T00:38:53.653Z,1016.52
2019-06-26T00:39:48.336Z,1016.67
2019-06-26T00:39:48.902Z,1016.61
2019-06-26T00:39:49.500Z,1016.59
2019-06-26T00:39:50.100Z,1016.53
2019-06-26T00:39:50.715Z,1016.56
2019-06-26T00:39:51.455Z,1016.56
2019-06-26T00:40:46.061Z,1016.64
2019-06-26T00:40:46.554Z,1016.58
2019-06-26T00:40:47.152Z,1016.55
2019-06-26T00:40:47.752Z,1016.56
2019-06-26T00:40:48.355Z,1016.55
2019-06-26T00:41:44.658Z,1016.67
2019-06-26T00:41:45.301Z,1016.58
2019-06-26T00:41:45.830Z,1016.58
2019-06-26T00:41:46.431Z,1016.54
2019-06-26T00:41:47.031Z,1016.55
2019-06-26T00:41:47.634Z,1016.53
2019-06-26T00:42:43.848Z,1016.64
2019-06-26T00:42:44.419Z,1016.60
2019-06-26T00:42:45.115Z,1016.60
2019-06-26T00:42:45.617Z,1016.53
2019-06-26T00:42:46.218Z,1016.57
2019-06-26T00:42:46.819Z,1016.58
2019-06-26T00:43:42.913Z,1016.64
2019-06-26T00:43:43.067Z,1016.57
2019-06-26T00:43:43.591Z,1016.54
2019-06-26T00:43:44.188Z,1016.55
2019-06-26T00:43:44.791Z,1016.55
2019-06-26T00:43:45.397Z,1016.56
2019-06-26T00:44:39.454Z,1016.64
2019-06-26T00:44:40.031Z,1016.57
2019-06-26T00:44:40.630Z,1016.58
2019-06-26T00:44:41.229Z,1016.56
2019-06-26T00:44:41.830Z,1016.56
2019-06-26T00:45:38.134Z,1016.66
2019-06-26T00:45:38.705Z,1016.61
2019-06-26T00:45:39.327Z,1016.58
2019-06-26T00:45:39.906Z,1016.56
2019-06-26T00:45:40.504Z,1016.56
2019-06-26T00:45:41.110Z,1016.56
2019-06-26T00:46:35.801Z,1016.67
2019-06-26T00:46:36.357Z,1016.60
2019-06-26T00:46:36.958Z,1016.58
2019-06-26T00:46:37.558Z,1016.56
2019-06-26T00:46:38.158Z,1016.55
2019-06-26T00:46:38.764Z,1016.57
2019-06-26T00:47:34.462Z,1016.69
2019-06-26T00:47:35.034Z,1016.60
2019-06-26T00:47:35.634Z,1016.58
2019-06-26T00:47:36.234Z,1016.56
2019-06-26T00:47:36.832Z,1016.55
2019-06-26T00:47:38.634Z,1016.56
2019-06-26T00:48:33.138Z,1016.64
2019-06-26T00:48:33.710Z,1016.60
2019-06-26T00:48:34.317Z,1016.54
2019-06-26T00:48:34.910Z,1016.55
2019-06-26T00:48:35.508Z,1016.55
2019-06-26T00:49:30.803Z,1016.64
2019-06-26T00:49:31.362Z,1016.59
2019-06-26T00:49:31.962Z,1016.57
2019-06-26T00:49:32.562Z,1016.56
2019-06-26T00:49:33.169Z,1016.53
2019-06-26T00:49:33.762Z,1016.54
2019-06-26T00:50:28.440Z,1016.64
2019-06-26T00:50:29.019Z,1016.58
2019-06-26T00:50:29.613Z,1016.53
2019-06-26T00:50:30.216Z,1016.54
2019-06-26T00:50:30.814Z,1016.53
2019-06-26T00:50:31.413Z,1016.51
2019-06-26T00:51:27.116Z,1016.61
2019-06-26T00:51:27.691Z,1016.57
2019-06-26T00:51:28.289Z,1016.56
2019-06-26T00:51:28.890Z,1016.51
2019-06-26T00:51:29.489Z,1016.55
2019-06-26T00:51:31.289Z,1016.51
2019-06-26T00:52:24.765Z,1016.60
2019-06-26T00:52:25.342Z,1016.56
2019-06-26T00:52:25.942Z,1016.56
2019-06-26T00:52:26.542Z,1016.55
2019-06-26T00:52:27.142Z,1016.50
2019-06-26T00:53:23.453Z,1016.60
2019-06-26T00:53:24.015Z,1016.61
2019-06-26T00:53:24.618Z,1016.57
2019-06-26T00:53:25.215Z,1016.51
2019-06-26T00:53:25.815Z,1016.54
2019-06-26T00:53:26.415Z,1016.53
2019-06-26T00:54:22.121Z,1016.63
2019-06-26T00:54:22.693Z,1016.58
2019-06-26T00:54:23.292Z,1016.56
2019-06-26T00:54:23.892Z,1016.55
2019-06-26T00:54:24.496Z,1016.55
2019-06-26T00:54:25.093Z,1016.56
2019-06-26T00:55:20.798Z,1016.66
2019-06-26T00:55:21.367Z,1016.60
2019-06-26T00:55:21.971Z,1016.55
2019-06-26T00:55:22.569Z,1016.54
2019-06-26T00:55:23.169Z,1016.56
2019-06-26T00:55:23.767Z,1016.56
2019-06-26T00:56:18.449Z,1016.66
2019-06-26T00:56:19.022Z,1016.63
2019-06-26T00:56:19.622Z,1016.57
2019-06-26T00:56:20.229Z,1016.56
2019-06-26T00:56:20.821Z,1016.54
2019-06-26T00:57:16.098Z,1016.66
2019-06-26T00:57:16.681Z,1016.65
2019-06-26T00:57:17.277Z,1016.60
2019-06-26T00:57:17.873Z,1016.58
2019-06-26T00:57:18.473Z,1016.57
2019-06-26T00:57:19.076Z,1016.57
2019-06-26T00:58:13.786Z,1016.67
2019-06-26T00:58:14.327Z,1016.63
2019-06-26T00:58:14.925Z,1016.59
2019-06-26T00:58:15.526Z,1016.56
2019-06-26T00:58:16.124Z,1016.57
2019-06-26T00:58:16.728Z,1016.56
2019-06-26T00:59:11.402Z,1016.67
2019-06-26T00:59:11.978Z,1016.57
2019-06-26T00:59:12.577Z,1016.58
2019-06-26T00:59:13.177Z,1016.54
2019-06-26T00:59:13.778Z,1016.55
2019-06-26T01:00:09.058Z,1016.64
2019-06-26T01:00:09.642Z,1016.58
2019-06-26T01:00:10.232Z,1016.56
2019-06-26T01:00:10.831Z,1016.51
2019-06-26T01:00:11.429Z,1016.56
2019-06-26T01:00:12.029Z,1016.53
2019-06-26T01:01:06.706Z,1016.65
2019-06-26T01:01:07.282Z,1016.58
2019-06-26T01:01:07.887Z,1016.55
2019-06-26T01:01:08.481Z,1016.52
2019-06-26T01:01:09.081Z,1016.53
2019-06-26T01:01:09.681Z,1016.56
2019-06-26T01:02:04.357Z,1016.60
2019-06-26T01:02:04.931Z,1016.56
2019-06-26T01:02:05.534Z,1016.54
2019-06-26T01:02:06.134Z,1016.54
2019-06-26T01:02:06.733Z,1016.50
2019-06-26T01:03:03.038Z,1016.58
2019-06-26T01:03:03.610Z,1016.52
2019-06-26T01:03:04.210Z,1016.53
2019-06-26T01:03:04.820Z,1016.50
2019-06-26T01:03:05.406Z,1016.50
2019-06-26T01:03:06.006Z,1016.50
2019-06-26T01:04:00.685Z,1016.60
2019-06-26T01:04:01.259Z,1016.54
2019-06-26T01:04:01.862Z,1016.53
2019-06-26T01:04:02.461Z,1016.52
2019-06-26T01:04:03.066Z,1016.53
2019-06-26T01:04:03.658Z,1016.51
2019-06-26T01:04:58.442Z,1016.63
2019-06-26T01:04:59.016Z,1016.58
2019-06-26T01:04:59.618Z,1016.55
2019-06-26T01:05:00.216Z,1016.52
2019-06-26T01:05:00.822Z,1016.51
2019-06-26T01:05:56.199Z,1016.57
2019-06-26T01:05:56.771Z,1016.57
2019-06-26T01:05:57.368Z,1016.51
2019-06-26T01:05:57.971Z,1016.50
2019-06-26T01:05:58.585Z,1016.53
2019-06-26T01:05:59.168Z,1016.50
2019-06-26T01:06:53.950Z,1016.57
2019-06-26T01:06:54.523Z,1016.55
2019-06-26T01:06:55.122Z,1016.55
2019-06-26T01:06:55.723Z,1016.53
2019-06-26T01:06:56.323Z,1016.49
2019-06-26T01:06:56.924Z,1016.50
2019-06-26T01:07:52.623Z,1016.59
2019-06-26T01:07:53.197Z,1016.55
2019-06-26T01:07:53.798Z,1016.55
2019-06-26T01:07:54.398Z,1016.52
2019-06-26T01:07:54.999Z,1016.50
2019-06-26T01:07:56.199Z,1016.50
2019-06-26T01:08:50.279Z,1016.56
2019-06-26T01:08:50.852Z,1016.51
2019-06-26T01:08:51.450Z,1016.54
2019-06-26T01:08:52.056Z,1016.52
2019-06-26T01:08:52.651Z,1016.50
2019-06-26T01:09:48.953Z,1016.56
2019-06-26T01:09:49.525Z,1016.54
2019-06-26T01:09:50.127Z,1016.50
2019-06-26T01:09:50.753Z,1016.46
2019-06-26T01:09:51.324Z,1016.47
2019-06-26T01:09:51.924Z,1016.47
2019-06-26T01:10:46.603Z,1016.53
2019-06-26T01:10:47.178Z,1016.52
2019-06-26T01:10:47.778Z,1016.52
2019-06-26T01:10:48.378Z,1016.50
2019-06-26T01:10:48.978Z,1016.46
2019-06-26T01:10:49.577Z,1016.49
2019-06-26T01:11:44.267Z,1016.47
2019-06-26T01:11:44.831Z,1016.48
2019-06-26T01:11:45.433Z,1016.42
2019-06-26T01:11:46.030Z,1016.40
2019-06-26T01:11:46.634Z,1016.40
2019-06-26T01:12:41.906Z,1016.51
2019-06-26T01:12:42.481Z,1016.49
2019-06-26T01:12:43.081Z,1016.45
2019-06-26T01:12:43.681Z,1016.44
2019-06-26T01:12:44.281Z,1016.46
2019-06-26T01:12:44.882Z,1016.42
2019-06-26T01:13:39.562Z,1016.47
2019-06-26T01:13:40.133Z,1016.49
2019-06-26T01:13:40.734Z,1016.44
2019-06-26T01:13:41.333Z,1016.43
2019-06-26T01:13:54.355Z,1016.42
2019-06-26T01:13:57.262Z,1016.40
2019-06-26T01:14:37.209Z,1016.49
2019-06-26T01:14:37.787Z,1016.51
2019-06-26T01:14:38.387Z,1016.47
2019-06-26T01:14:38.985Z,1016.45
2019-06-26T01:14:39.586Z,1016.44
2019-06-26T01:15:35.888Z,1016.52
2019-06-26T01:15:36.458Z,1016.51
2019-06-26T01:15:37.058Z,1016.50
2019-06-26T01:15:37.659Z,1016.48
2019-06-26T01:15:38.259Z,1016.46
2019-06-26T01:15:38.858Z,1016.48
2019-06-26T01:16:33.538Z,1016.47
2019-06-26T01:16:34.111Z,1016.47
2019-06-26T01:16:34.711Z,1016.45
2019-06-26T01:16:35.314Z,1016.44
2019-06-26T01:16:35.916Z,1016.47
2019-06-26T01:16:36.512Z,1016.42
2019-06-26T01:17:31.189Z,1016.48
2019-06-26T01:17:31.765Z,1016.50
2019-06-26T01:17:32.367Z,1016.45
2019-06-26T01:17:32.965Z,1016.45
2019-06-26T01:17:33.564Z,1016.43
2019-06-26T01:18:28.840Z,1016.54
2019-06-26T01:18:29.416Z,1016.54
2019-06-26T01:18:30.018Z,1016.52
2019-06-26T01:18:30.616Z,1016.48
2019-06-26T01:18:31.215Z,1016.53
2019-06-26T01:18:31.821Z,1016.47
2019-06-26T01:19:26.492Z,1016.58
2019-06-26T01:19:27.068Z,1016.58
2019-06-26T01:19:27.682Z,1016.54
2019-06-26T01:19:28.268Z,1016.53
2019-06-26T01:19:28.868Z,1016.48
2019-06-26T01:19:29.469Z,1016.52
2019-06-26T01:20:24.247Z,1016.60
2019-06-26T01:20:24.823Z,1016.61
2019-06-26T01:20:25.422Z,1016.56
2019-06-26T01:20:26.023Z,1016.53
2019-06-26T01:20:26.623Z,1016.54
2019-06-26T01:21:22.933Z,1016.60
2019-06-26T01:21:23.497Z,1016.60
2019-06-26T01:21:24.135Z,1016.57
2019-06-26T01:21:24.701Z,1016.52
2019-06-26T01:21:25.296Z,1016.54
2019-06-26T01:21:25.897Z,1016.53
2019-06-26T01:22:21.632Z,1016.61
2019-06-26T01:22:22.171Z,1016.54
2019-06-26T01:22:22.770Z,1016.55
2019-06-26T01:22:23.373Z,1016.53
2019-06-26T01:22:23.971Z,1016.51
2019-06-26T01:22:24.571Z,1016.53
2019-06-26T01:23:19.251Z,1016.62
2019-06-26T01:23:19.825Z,1016.58
2019-06-26T01:23:20.427Z,1016.56
2019-06-26T01:23:21.025Z,1016.56
2019-06-26T01:23:21.625Z,1016.53
2019-06-26T01:23:23.424Z,1016.53
2019-06-26T01:24:17.005Z,1016.57
2019-06-26T01:24:17.580Z,1016.55
2019-06-26T01:24:18.193Z,1016.53
2019-06-26T01:24:18.778Z,1016.51
2019-06-26T01:24:19.378Z,1016.51
2019-06-26T01:25:14.775Z,1016.52
2019-06-26T01:25:15.333Z,1016.55
2019-06-26T01:25:15.943Z,1016.50
2019-06-26T01:25:16.536Z,1016.52
2019-06-26T01:25:17.135Z,1016.47
2019-06-26T01:25:17.732Z,1016.52
2019-06-26T01:26:12.513Z,1016.58
2019-06-26T01:26:13.088Z,1016.54
2019-06-26T01:26:13.687Z,1016.52
2019-06-26T01:26:14.287Z,1016.51
2019-06-26T01:26:14.888Z,1016.47
2019-06-26T01:26:15.487Z,1016.47
2019-06-26T01:27:11.188Z,1016.59
2019-06-26T01:27:11.762Z,1016.56
2019-06-26T01:27:12.362Z,1016.49
2019-06-26T01:27:12.962Z,1016.51
2019-06-26T01:27:13.562Z,1016.53
2019-06-26T01:27:14.762Z,1016.49
2019-06-26T01:28:08.944Z,1016.50
2019-06-26T01:28:09.518Z,1016.48
2019-06-26T01:28:10.120Z,1016.48
2019-06-26T01:28:10.717Z,1016.49
2019-06-26T01:28:11.317Z,1016.44
2019-06-26T01:29:06.697Z,1016.50
2019-06-26T01:29:07.277Z,1016.48
2019-06-26T01:29:07.874Z,1016.43
2019-06-26T01:29:08.472Z,1016.45
2019-06-26T01:29:09.072Z,1016.43
2019-06-26T01:29:09.676Z,1016.40
2019-06-26T01:30:05.385Z,1016.46
2019-06-26T01:30:05.947Z,1016.53
2019-06-26T01:30:06.545Z,1016.47
2019-06-26T01:30:07.162Z,1016.48
2019-06-26T01:30:07.751Z,1016.46
2019-06-26T01:30:08.364Z,1016.46
2019-06-26T01:31:03.026Z,1016.50
2019-06-26T01:31:03.610Z,1016.49
2019-06-26T01:31:04.201Z,1016.51
2019-06-26T01:31:04.800Z,1016.46
2019-06-26T01:31:05.399Z,1016.45
2019-06-26T01:31:07.199Z,1016.43
2019-06-26T01:32:01.702Z,1016.52
2019-06-26T01:32:02.272Z,1016.52
2019-06-26T01:32:02.875Z,1016.46
2019-06-26T01:32:03.474Z,1016.50
2019-06-26T01:32:04.072Z,1016.48
2019-06-26T01:32:59.352Z,1016.59
2019-06-26T01:32:59.928Z,1016.58
2019-06-26T01:33:00.526Z,1016.55
2019-06-26T01:33:01.127Z,1016.52
2019-06-26T01:33:01.731Z,1016.54
2019-06-26T01:33:02.329Z,1016.51
2019-06-26T01:33:57.004Z,1016.54
2019-06-26T01:33:57.585Z,1016.56
2019-06-26T01:33:58.179Z,1016.53
2019-06-26T01:33:58.778Z,1016.51
2019-06-26T01:33:59.379Z,1016.50
2019-06-26T01:33:59.979Z,1016.48
2019-06-26T01:34:55.693Z,1016.54
2019-06-26T01:34:56.252Z,1016.54
2019-06-26T01:34:56.853Z,1016.53
2019-06-26T01:34:57.454Z,1016.49
2019-06-26T01:34:58.052Z,1016.47
2019-06-26T01:34:59.852Z,1016.50
2019-06-26T01:35:54.358Z,1016.54
2019-06-26T01:35:54.931Z,1016.54
2019-06-26T01:35:55.530Z,1016.51
2019-06-26T01:35:56.129Z,1016.50
2019-06-26T01:35:56.738Z,1016.46
2019-06-26T01:36:52.006Z,1016.55
2019-06-26T01:36:52.581Z,1016.54
2019-06-26T01:36:53.182Z,1016.52
2019-06-26T01:36:53.782Z,1016.47
2019-06-26T01:36:54.380Z,1016.44
2019-06-26T01:36:54.985Z,1016.47
2019-06-26T01:37:49.661Z,1016.50
2019-06-26T01:37:50.237Z,1016.48
2019-06-26T01:37:50.833Z,1016.46
2019-06-26T01:37:51.433Z,1016.44
2019-06-26T01:37:52.049Z,1016.43
2019-06-26T01:37:52.633Z,1016.47
2019-06-26T01:38:47.492Z,1016.55
2019-06-26T01:38:47.989Z,1016.53
2019-06-26T01:38:48.593Z,1016.52
2019-06-26T01:38:49.193Z,1016.52
2019-06-26T01:38:49.787Z,1016.51
2019-06-26T01:39:46.091Z,1016.59
2019-06-26T01:39:46.661Z,1016.56
2019-06-26T01:39:47.262Z,1016.53
2019-06-26T01:39:47.863Z,1016.51
2019-06-26T01:39:48.462Z,1016.51
2019-06-26T01:39:49.061Z,1016.50
2019-06-26T01:40:44.768Z,1016.55
2019-06-26T01:40:45.341Z,1016.59
2019-06-26T01:40:45.939Z,1016.54
2019-06-26T01:40:46.539Z,1016.51
2019-06-26T01:40:47.138Z,1016.49
2019-06-26T01:40:47.738Z,1016.50
2019-06-26T01:41:43.442Z,1016.53
2019-06-26T01:41:44.015Z,1016.54
2019-06-26T01:41:44.615Z,1016.50
2019-06-26T01:41:45.214Z,1016.48
2019-06-26T01:41:45.814Z,1016.46
2019-06-26T01:41:46.414Z,1016.46
2019-06-26T01:42:41.095Z,1016.49
2019-06-26T01:42:41.667Z,1016.50
2019-06-26T01:42:42.267Z,1016.49
2019-06-26T01:42:42.867Z,1016.50
2019-06-26T01:42:43.508Z,1016.49
2019-06-26T01:43:38.744Z,1016.54
2019-06-26T01:43:39.325Z,1016.53
2019-06-26T01:43:39.920Z,1016.50
2019-06-26T01:43:40.517Z,1016.49
2019-06-26T01:43:41.119Z,1016.50
2019-06-26T01:43:41.720Z,1016.47
2019-06-26T01:44:36.499Z,1016.57
2019-06-26T01:44:37.075Z,1016.55
2019-06-26T01:44:37.674Z,1016.54
2019-06-26T01:44:38.274Z,1016.52
2019-06-26T01:44:38.873Z,1016.53
2019-06-26T01:44:39.474Z,1016.48
2019-06-26T01:45:35.174Z,1016.53
2019-06-26T01:45:35.747Z,1016.53
2019-06-26T01:45:36.348Z,1016.51
2019-06-26T01:45:36.953Z,1016.52
2019-06-26T01:45:37.560Z,1016.51
2019-06-26T01:45:39.345Z,1016.50
2019-06-26T01:46:32.825Z,1016.60
2019-06-26T01:46:33.404Z,1016.58
2019-06-26T01:46:34.000Z,1016.54
2019-06-26T01:46:34.602Z,1016.51
2019-06-26T01:46:35.201Z,1016.53
2019-06-26T01:47:30.594Z,1016.65
2019-06-26T01:47:31.156Z,1016.63
2019-06-26T01:47:31.757Z,1016.60
2019-06-26T01:47:32.356Z,1016.59
2019-06-26T01:47:32.955Z,1016.57
2019-06-26T01:47:33.556Z,1016.58
2019-06-26T01:48:28.335Z,1016.66
2019-06-26T01:48:28.910Z,1016.60
2019-06-26T01:48:29.509Z,1016.59
2019-06-26T01:48:30.109Z,1016.58
2019-06-26T01:48:30.708Z,1016.57
2019-06-26T01:48:31.310Z,1016.55
2019-06-26T01:49:26.089Z,1016.68
2019-06-26T01:49:26.664Z,1016.61
2019-06-26T01:49:27.264Z,1016.58
2019-06-26T01:49:27.864Z,1016.56
2019-06-26T01:49:28.469Z,1016.60
2019-06-26T01:50:23.842Z,1016.62
2019-06-26T01:50:24.417Z,1016.60
2019-06-26T01:50:25.025Z,1016.59
2019-06-26T01:50:25.620Z,1016.59
2019-06-26T01:50:26.218Z,1016.55
2019-06-26T01:50:26.817Z,1016.56
2019-06-26T01:51:21.596Z,1016.57
2019-06-26T01:51:22.172Z,1016.54
2019-06-26T01:51:22.771Z,1016.52
2019-06-26T01:51:23.374Z,1016.53
2019-06-26T01:51:23.971Z,1016.51
2019-06-26T01:51:24.570Z,1016.51
2019-06-26T01:52:19.350Z,1016.58
2019-06-26T01:52:19.926Z,1016.60
2019-06-26T01:52:20.529Z,1016.52
2019-06-26T01:52:21.125Z,1016.54
2019-06-26T01:52:21.725Z,1016.52
2019-06-26T01:53:17.106Z,1016.58
2019-06-26T01:53:17.683Z,1016.57
2019-06-26T01:53:18.280Z,1016.53
2019-06-26T01:53:18.880Z,1016.54
2019-06-26T01:53:19.481Z,1016.55
2019-06-26T01:53:20.079Z,1016.50
2019-06-26T01:54:14.859Z,1016.58
2019-06-26T01:54:15.433Z,1016.60
2019-06-26T01:54:16.035Z,1016.56
2019-06-26T01:54:16.692Z,1016.54
2019-06-26T01:54:17.234Z,1016.52
2019-06-26T01:54:17.835Z,1016.53
2019-06-26T01:55:12.615Z,1016.59
2019-06-26T01:55:13.191Z,1016.58
2019-06-26T01:55:13.790Z,1016.58
2019-06-26T01:55:14.389Z,1016.54
2019-06-26T01:55:14.989Z,1016.55
2019-06-26T01:56:10.368Z,1016.66
2019-06-26T01:56:10.944Z,1016.63
2019-06-26T01:56:11.542Z,1016.62
2019-06-26T01:56:12.143Z,1016.57
2019-06-26T01:56:12.741Z,1016.61
2019-06-26T01:56:13.342Z,1016.59
2019-06-26T01:57:08.021Z,1016.67
2019-06-26T01:57:08.597Z,1016.64
2019-06-26T01:57:09.194Z,1016.64
2019-06-26T01:57:09.794Z,1016.57
2019-06-26T01:57:10.394Z,1016.58
2019-06-26T01:57:10.995Z,1016.60
2019-06-26T01:58:05.775Z,1016.68
2019-06-26T01:58:06.348Z,1016.69
2019-06-26T01:58:06.950Z,1016.68
2019-06-26T01:58:07.548Z,1016.64
2019-06-26T01:58:08.147Z,1016.61
2019-06-26T01:59:04.450Z,1016.65
2019-06-26T01:59:05.025Z,1016.69
2019-06-26T01:59:05.622Z,1016.61
2019-06-26T01:59:06.223Z,1016.64
2019-06-26T01:59:06.823Z,1016.63
2019-06-26T01:59:07.423Z,1016.58
2019-06-26T02:00:03.211Z,1016.68
2019-06-26T02:00:03.703Z,1016.66
2019-06-26T02:00:04.305Z,1016.64
2019-06-26T02:00:04.974Z,1016.61
2019-06-26T02:00:05.497Z,1016.61
2019-06-26T02:00:06.098Z,1016.62
2019-06-26T02:01:01.805Z,1016.72
2019-06-26T02:01:02.376Z,1016.67
2019-06-26T02:01:03.073Z,1016.61
2019-06-26T02:01:03.605Z,1016.61
2019-06-26T02:01:04.173Z,1016.62
2019-06-26T02:01:04.773Z,1016.64
2019-06-26T02:02:00.476Z,1016.77
2019-06-26T02:02:01.058Z,1016.69
2019-06-26T02:02:01.652Z,1016.69
2019-06-26T02:02:02.250Z,1016.65
2019-06-26T02:02:02.853Z,1016.66
2019-06-26T02:02:04.652Z,1016.67
2019-06-26T02:02:59.156Z,1016.73
2019-06-26T02:02:59.735Z,1016.73
2019-06-26T02:03:00.330Z,1016.71
2019-06-26T02:03:00.926Z,1016.70
2019-06-26T02:03:01.535Z,1016.71
2019-06-26T02:03:57.837Z,1016.75
2019-06-26T02:03:58.405Z,1016.66
2019-06-26T02:03:59.002Z,1016.65
2019-06-26T02:03:59.602Z,1016.66
2019-06-26T02:04:00.208Z,1016.66
2019-06-26T02:04:00.801Z,1016.67
2019-06-26T02:04:56.513Z,1016.78
2019-06-26T02:04:57.080Z,1016.75
2019-06-26T02:04:57.682Z,1016.75
2019-06-26T02:04:58.277Z,1016.72
2019-06-26T02:04:58.880Z,1016.70
2019-06-26T02:04:59.479Z,1016.69
2019-06-26T02:05:55.179Z,1016.84
2019-06-26T02:05:55.754Z,1016.79
2019-06-26T02:05:56.358Z,1016.77
2019-06-26T02:05:56.954Z,1016.75
2019-06-26T02:05:57.553Z,1016.73
2019-06-26T02:05:58.153Z,1016.75
2019-06-26T02:06:53.860Z,1016.88
2019-06-26T02:06:54.442Z,1016.82
2019-06-26T02:06:55.071Z,1016.82
2019-06-26T02:06:55.658Z,1016.79
2019-06-26T02:06:56.228Z,1016.77
2019-06-26T02:06:58.190Z,1016.77
2019-06-26T02:07:52.531Z,1016.78
2019-06-26T02:07:53.149Z,1016.76
2019-06-26T02:07:53.703Z,1016.72
2019-06-26T02:07:54.303Z,1016.72
2019-06-26T02:07:54.904Z,1016.73
2019-06-26T02:08:51.205Z,1016.83
2019-06-26T02:08:51.781Z,1016.79
2019-06-26T02:08:52.388Z,1016.78
2019-06-26T02:08:52.981Z,1016.76
2019-06-26T02:08:53.580Z,1016.76
2019-06-26T02:08:54.181Z,1016.74
2019-06-26T02:09:48.857Z,1016.86
2019-06-26T02:09:49.434Z,1016.83
2019-06-26T02:09:50.035Z,1016.81
2019-06-26T02:09:50.634Z,1016.79
2019-06-26T02:09:51.235Z,1016.76
2019-06-26T02:09:51.834Z,1016.78
2019-06-26T02:10:46.614Z,1016.86
2019-06-26T02:10:47.187Z,1016.83
2019-06-26T02:10:47.787Z,1016.79
2019-06-26T02:10:48.389Z,1016.77
2019-06-26T02:10:48.988Z,1016.74
2019-06-26T02:11:44.372Z,1016.84
2019-06-26T02:11:44.940Z,1016.83
2019-06-26T02:11:45.543Z,1016.80
2019-06-26T02:11:46.143Z,1016.79
2019-06-26T02:11:46.740Z,1016.80
2019-06-26T02:11:47.340Z,1016.79
2019-06-26T02:12:43.045Z,1016.84
2019-06-26T02:12:43.616Z,1016.86
2019-06-26T02:12:44.217Z,1016.80
2019-06-26T02:12:44.815Z,1016.80
2019-06-26T02:12:45.421Z,1016.78
2019-06-26T02:12:46.021Z,1016.76
2019-06-26T02:13:41.722Z,1016.84
2019-06-26T02:13:42.296Z,1016.83
2019-06-26T02:13:42.893Z,1016.80
2019-06-26T02:13:43.492Z,1016.80
2019-06-26T02:13:44.091Z,1016.77
2019-06-26T02:13:44.708Z,1016.76
2019-06-26T02:14:39.371Z,1016.81
2019-06-26T02:14:39.944Z,1016.82
2019-06-26T02:14:40.550Z,1016.77
2019-06-26T02:14:41.202Z,1016.77
2019-06-26T02:14:41.753Z,1016.76
2019-06-26T02:15:38.062Z,1016.81
2019-06-26T02:15:38.620Z,1016.79
2019-06-26T02:15:39.221Z,1016.78
2019-06-26T02:15:39.823Z,1016.80
2019-06-26T02:15:40.422Z,1016.75
2019-06-26T02:15:41.020Z,1016.75
2019-06-26T02:16:36.728Z,1016.84
2019-06-26T02:16:37.299Z,1016.81
2019-06-26T02:16:37.896Z,1016.78
2019-06-26T02:16:38.495Z,1016.78
2019-06-26T02:16:39.101Z,1016.77
2019-06-26T02:16:39.706Z,1016.76
2019-06-26T02:17:35.400Z,1016.85
2019-06-26T02:17:35.974Z,1016.84
2019-06-26T02:17:36.621Z,1016.80
2019-06-26T02:17:37.172Z,1016.79
2019-06-26T02:17:37.773Z,1016.81
2019-06-26T02:17:38.372Z,1016.79
2019-06-26T02:18:33.055Z,1016.84
2019-06-26T02:18:33.625Z,1016.81
2019-06-26T02:18:34.224Z,1016.80
2019-06-26T02:18:34.826Z,1016.81
2019-06-26T02:18:35.424Z,1016.79
2019-06-26T02:19:31.727Z,1016.88
2019-06-26T02:19:32.300Z,1016.88
2019-06-26T02:19:32.898Z,1016.84
2019-06-26T02:19:33.498Z,1016.83
2019-06-26T02:19:34.101Z,1016.82
2019-06-26T02:19:34.697Z,1016.80
2019-06-26T02:20:30.409Z,1016.82
2019-06-26T02:20:30.975Z,1016.84
2019-06-26T02:20:31.581Z,1016.83
2019-06-26T02:20:32.174Z,1016.80
2019-06-26T02:20:32.783Z,1016.82
2019-06-26T02:20:33.375Z,1016.80
2019-06-26T02:21:28.158Z,1016.84
2019-06-26T02:21:28.731Z,1016.85
2019-06-26T02:21:29.330Z,1016.88
2019-06-26T02:21:29.931Z,1016.82
2019-06-26T02:21:30.529Z,1016.81
2019-06-26T02:21:31.736Z,1016.83
2019-06-26T02:22:26.831Z,1016.85
2019-06-26T02:22:27.410Z,1016.84
2019-06-26T02:22:28.003Z,1016.80
2019-06-26T02:22:28.603Z,1016.79
2019-06-26T02:22:29.219Z,1016.80
2019-06-26T02:23:25.510Z,1016.88
2019-06-26T02:23:26.079Z,1016.89
2019-06-26T02:23:26.680Z,1016.85
2019-06-26T02:23:27.279Z,1016.86
2019-06-26T02:23:27.879Z,1016.85
2019-06-26T02:23:28.480Z,1016.85
2019-06-26T02:24:24.187Z,1016.92
2019-06-26T02:24:24.755Z,1016.92
2019-06-26T02:24:25.354Z,1016.88
2019-06-26T02:24:25.955Z,1016.84
2019-06-26T02:24:26.559Z,1016.86
2019-06-26T02:24:27.155Z,1016.85
2019-06-26T02:25:21.834Z,1016.94
2019-06-26T02:25:22.407Z,1016.91
2019-06-26T02:25:23.008Z,1016.84
2019-06-26T02:25:23.610Z,1016.83
2019-06-26T02:25:24.209Z,1016.84
2019-06-26T02:25:24.814Z,1016.88
2019-06-26T02:26:20.508Z,1016.97
2019-06-26T02:26:21.081Z,1016.94
2019-06-26T02:26:21.681Z,1016.90
2019-06-26T02:26:22.283Z,1016.90
2019-06-26T02:26:22.891Z,1016.87
2019-06-26T02:26:24.710Z,1016.88
2019-06-26T02:27:19.190Z,1016.89
2019-06-26T02:27:19.764Z,1016.88
2019-06-26T02:27:20.361Z,1016.89
2019-06-26T02:27:20.959Z,1016.87
2019-06-26T02:27:21.559Z,1016.86
2019-06-26T02:28:17.865Z,1016.94
2019-06-26T02:28:18.435Z,1016.92
2019-06-26T02:28:19.035Z,1016.92
2019-06-26T02:28:19.634Z,1016.90
2019-06-26T02:28:20.265Z,1016.88
2019-06-26T02:28:20.835Z,1016.88
2019-06-26T02:29:16.549Z,1016.91
2019-06-26T02:29:17.109Z,1016.94
2019-06-26T02:29:17.709Z,1016.88
2019-06-26T02:29:18.309Z,1016.89
2019-06-26T02:29:18.913Z,1016.89
2019-06-26T02:29:19.525Z,1016.88
2019-06-26T02:30:14.189Z,1016.93
2019-06-26T02:30:14.764Z,1016.91
2019-06-26T02:30:15.364Z,1016.89
2019-06-26T02:30:15.964Z,1016.91
2019-06-26T02:30:16.564Z,1016.90
2019-06-26T02:30:18.364Z,1016.89
2019-06-26T02:31:12.864Z,1016.91
2019-06-26T02:31:13.438Z,1016.90
2019-06-26T02:31:14.039Z,1016.90
2019-06-26T02:31:14.673Z,1016.89
2019-06-26T02:31:15.240Z,1016.88
2019-06-26T02:32:11.544Z,1016.93
2019-06-26T02:32:12.116Z,1016.89
2019-06-26T02:32:12.716Z,1016.90
2019-06-26T02:32:13.313Z,1016.86
2019-06-26T02:32:13.921Z,1016.88
2019-06-26T02:32:14.516Z,1016.86
2019-06-26T02:33:10.219Z,1016.91
2019-06-26T02:33:10.794Z,1016.90
2019-06-26T02:33:11.388Z,1016.90
2019-06-26T02:33:11.993Z,1016.86
2019-06-26T02:33:12.589Z,1016.88
2019-06-26T02:33:13.187Z,1016.83
2019-06-26T02:34:08.897Z,1016.96
2019-06-26T02:34:09.466Z,1016.95
2019-06-26T02:34:10.073Z,1016.93
2019-06-26T02:34:10.664Z,1016.91
2019-06-26T02:34:11.265Z,1016.92
2019-06-26T02:34:11.875Z,1016.89
2019-06-26T02:35:09.978Z,1016.93
2019-06-26T02:35:10.261Z,1016.93
2019-06-26T02:35:10.268Z,1016.90
2019-06-26T02:35:10.614Z,1016.88
2019-06-26T02:35:10.786Z,1016.86
2019-06-26T02:35:11.740Z,1016.88
2019-06-26T02:36:05.220Z,1016.93
2019-06-26T02:36:05.799Z,1016.90
2019-06-26T02:36:06.396Z,1016.86
2019-06-26T02:36:06.995Z,1016.91
2019-06-26T02:36:07.593Z,1016.89
2019-06-26T02:37:02.871Z,1016.95
2019-06-26T02:37:03.446Z,1016.92
2019-06-26T02:37:04.046Z,1016.92
2019-06-26T02:37:04.646Z,1016.87
2019-06-26T02:37:05.257Z,1016.87
2019-06-26T02:37:05.846Z,1016.84
2019-06-26T02:38:00.528Z,1016.93
2019-06-26T02:38:01.097Z,1016.92
2019-06-26T02:38:01.696Z,1016.89
2019-06-26T02:38:02.298Z,1016.86
2019-06-26T02:38:02.898Z,1016.86
2019-06-26T02:38:03.498Z,1016.88
2019-06-26T02:38:58.177Z,1016.91
2019-06-26T02:38:58.748Z,1016.91
2019-06-26T02:38:59.352Z,1016.90
2019-06-26T02:38:59.953Z,1016.91
2019-06-26T02:39:00.548Z,1016.87
2019-06-26T02:39:56.850Z,1016.94
2019-06-26T02:39:57.424Z,1016.92
2019-06-26T02:39:58.027Z,1016.89
2019-06-26T02:39:58.624Z,1016.88
2019-06-26T02:39:59.225Z,1016.87
2019-06-26T02:39:59.826Z,1016.88
2019-06-26T02:40:54.502Z,1016.91
2019-06-26T02:40:55.077Z,1016.89
2019-06-26T02:40:55.680Z,1016.87
2019-06-26T02:40:56.278Z,1016.86